Hleb Ihnatovich

Jefe de ojeadores - Molodechno
4 Dic 2028
Lunes
Continuar

Personalidad

Adaptabilidad (2) Ambición (10) Controversia (12) Lealtad (12) Presión (6) Profesionalismo (1) Deportividad (1) Temperamento (16)

Perfil

Estilo de dirección Democrático
Licencia Continental B
Determinación 9
Gestión de personas 9
Motivación 9
Disciplina 9
Satisfacción laboral
100%
Fatiga
0%
Cargo Jefe de ojeadores
Salario 42.0K p/s
Contrato 14.03.2030

Rendimiento

Comportamiento Bueno
Efectividad del entrenamiento
24%
Desarrollo de jugadores
15%
Prevención de lesiones
15%
Implementación táctica
15%

Eventos recientes

Asistió a una reunión de captación ahora
Asistió a una reunión de captación ahora
Asistió a una reunión de captación ahora
Evaluó a un jugador ahora
Asistió a una reunión de captación 7d atrás
Asistió a una reunión de captación 7d atrás
Evaluó a un jugador 7d atrás
Evaluó a un jugador 7d atrás

Actualmente siguiendo

100
Jugador Club Estado Habilidad Confianza Observado Última observación Último voto
Juan Mendoza Güemes Activo 112 / 114 40% 1 01.12.2028 -
Kabiru Abdullahi Barau Activo 77 / 106 40% 1 01.12.2028 -
Joseph Arumala Ikorodu City Activo 75 / 82 40% 2 29.11.2028 -
Nicolás Medina Atlanta Activo 122 / 113 40% 1 29.11.2028 -
Lisandro Cabrera Maipú Activo 133 / 115 40% 2 28.11.2028 -
Denis M. Kovalevich Dinamo Brest Activo 97 / 91 40% 1 28.11.2028 -
Agustín Gallo Tristán Suárez Activo 132 / 101 40% 2 26.11.2028 -
Clemente Montes Santiago Wanderers Activo 120 / 128 40% 3 26.11.2028 -
Kirill Tsepenkov Dnepr Mogilev Activo 94 / 105 40% 3 23.11.2028 -
Julián Brea Cobresal Activo 96 / 99 40% 2 23.11.2028 -
Ibrahim Yahaya Barau Activo 105 / 84 40% 2 19.11.2028 -
Facundo Krüger Temperley Activo 136 / 113 40% 3 19.11.2028 -
Mauro Valiente Estudiantes Activo 112 / 108 40% 2 18.11.2028 -
Martin Sekulić Ural Activo 128 / 119 40% 1 18.11.2028 -
Daouda Natama Minsk Activo 84 / 88 40% 2 17.11.2028 -
Tomás Blanco Estudiantes Activo 92 / 99 40% 2 17.11.2028 -
Franco Ayunta Temperley Activo 111 / 112 40% 2 16.11.2028 -
Maxim Kravtsov Neman Activo 105 / 102 40% 1 16.11.2028 Más información
Ruslan Gogniev Lida Activo 67 / 76 40% 1 15.11.2028 -
Vladislav Lozhkin Dinamo Brest Activo 112 / 92 40% 1 13.11.2028 -
Santiago Rodríguez Gimnasia y Esgrima Activo 101 / 120 40% 1 13.11.2028 -
Dmitriy Matyash Arsenal Dzerzhinsk Activo 85 / 78 40% 1 12.11.2028 -
Sebastián Cocimano Nueva Chicago Activo 97 / 127 40% 1 11.11.2028 -
Sebastián Marfort Racing Activo 103 / 121 40% 2 10.11.2028 -
José Barreto Quilmes Activo 129 / 111 40% 2 08.11.2028 -
Lucas Pedraza Defensores Unidos Activo 123 / 98 40% 1 08.11.2028 -
Daniel Barrea Godoy Cruz Activo 126 / 119 40% 6 07.11.2028 -
Abubakar Bonni Enyimba Activo 85 / 92 40% 1 07.11.2028 -
Matías Sosa Arsenal Activo 133 / 110 40% 2 05.11.2028 -
Tiago Taobas Central Norte Activo 75 / 82 40% 1 05.11.2028 -
Dylan Cabral Arsenal Activo 112 / 109 40% 2 30.10.2028 -
Gianluca Pugliese Güemes Activo 100 / 112 40% 2 28.10.2028 -
Juan David Rueda Alianza Petrolera Activo 132 / 108 40% 3 25.10.2028 -
Marco Miori Alvarado Activo 115 / 106 40% 3 23.10.2028 -
Steven Alfred Torpedo-BelAZ Activo 115 / 96 40% 1 22.10.2028 -
Gonzalo Flores Almirante Brown Activo 112 / 104 40% 1 20.10.2028 -
Agustín Dávila Cerro Largo Activo 77 / 96 40% 2 18.10.2028 -
Gustavo Viera Cerro Largo Activo 120 / 113 40% 1 15.10.2028 -
Marcos Echeverría Temperley Activo 125 / 113 40% 1 15.10.2028 -
Antony Alonso Deportivo Riestra Activo 142 / 116 40% 1 13.10.2028 -
Chimobi Igwilo Rangers International Activo 111 / 83 40% 3 11.10.2028 -
David Maguicha Atlanta Activo 72 / 101 40% 1 10.10.2028 -
Genaro Rossi San Martín SJ Activo 95 / 108 40% 1 08.10.2028 -
Bruno Miño Almirante Brown Activo 113 / 111 40% 1 04.10.2028 -
Luis Sandoval Independiente Medellin Activo 104 / 133 40% 1 04.10.2028 -
Augusto Berrondo Tristán Suárez Activo 91 / 106 40% 1 02.10.2028 -
Luca Franco Arsenal Negociando 96 / 98 40% 2 04.09.2028 -
Ganiyu Wasiu Shooting Stars Negociando 96 / 98 40% 1 07.08.2028 -
Giacomo Zecca Torres Activo 90 / 103 40% 1 31.07.2028 -
Andrey Mazurin Yenisey Activo 112 / 100 40% 1 14.07.2028 -
Bojan Roganović Torpedo Moscow Activo 109 / 120 40% 1 14.07.2028 -
Timur Akmurzin Dinamo Bryansk Negociando 88 / 95 40% 1 20.06.2028 -
Alessio Cragno Südtirol Activo 155 / 125 40% 1 20.06.2028 -
Louis Flower Crawley Town Activo 107 / 107 40% 1 14.06.2028 -
Dmitry Kuptsov Spartak Tambov Activo 79 / 83 40% 1 14.06.2028 -
Daniil Agureev Amkar Activo 106 / 89 40% 2 07.02.2028 -
Matija Popović Fakel Activo 116 / 122 40% 2 07.02.2028 -
Ilja Porokhov Shinnik Activo 80 / 90 40% 1 24.01.2028 -
Alexandre Jesus Orenburg Activo 121 / 110 40% 1 24.01.2028 -
Axel Gnapi Dable Fakel Activo 97 / 92 40% 2 23.01.2028 -
Gamid Agalarov Orenburg Activo 114 / 121 40% 1 23.01.2028 -
Artur Kozyrev Volna Activo 92 / 99 40% 3 22.01.2028 -
Danil Krugovoy Orenburg Activo 135 / 125 40% 1 22.01.2028 -
Mikhail Ignatov Sochi Activo 113 / 122 40% 2 21.01.2028 -
François Kamano Sochi Activo 131 / 119 40% 1 21.01.2028 -
Surkhaikhan Abdullaev KAMAZ Activo 106 / 88 40% 2 20.01.2028 -
Ilja Rubtsov Chaika Activo 84 / 98 40% 1 20.01.2028 -
Sergey Volkov Zenit Activo 120 / 114 40% 2 17.01.2028 -
Kirill Danilin Ural Activo 114 / 118 40% 1 16.01.2028 -
Franco Bustamante Almagro Activo 122 / 117 40% 2 15.01.2028 -
Alfred Mazurich Lida Activo 90 / 86 40% 1 12.01.2028 -
Vyacheslav Grulev Nizhniy Novgorod Activo 111 / 110 40% 4 10.01.2028 -
Ilja Safronov Rotor Activo 103 / 106 40% 2 10.01.2028 -
Ilja Berkovskiy Torpedo Moscow Activo 105 / 116 40% 1 10.01.2028 -
Kirill Bozhenov Sokol Activo 98 / 96 40% 1 08.01.2028 -
Danil Karpov KAMAZ Activo 107 / 100 40% 1 06.01.2028 -
Kamran Aliev SKA Khabarovsk Activo 112 / 98 40% 1 03.01.2028 -
Maxim Kutovoy Salyut Activo 104 / 83 40% 1 30.12.2027 -
Mikhail Gainov Dinamo Stavropol Activo 81 / 84 40% 2 27.12.2027 -
Jacobo Alcalde SKA Khabarovsk Activo 86 / 94 40% 1 27.12.2027 -
Juan Sebastián Herrera Deportivo La Guaira Activo 117 / 128 40% 1 23.12.2027 -
Razhab Magomedov Dinamo Makhachkala Activo 124 / 110 40% 1 22.12.2027 -
Timur Suleimanov Nizhniy Novgorod Activo 109 / 116 40% 1 17.12.2027 -
Vladimir Khubulov Dinamo Makhachkala Activo 114 / 118 40% 1 14.12.2027 -
Daniil Motorin Rubin Activo 88 / 101 40% 1 06.12.2027 -
Evgeniy Elezarenko Osipovichi Activo 65 / 72 37% 1 19.06.2027 Más información
Daniil Kondrakov KDV Tomsk Activo 96 / 91 40% 1 23.01.2027 -
Gevork Sarkisyan Saturn Activo 94 / 83 40% 1 22.01.2027 -
Alexandr Olenev Nart Activo 79 / 89 40% 1 22.01.2027 -
Rashid Magomedov Neftekhimik Activo 90 / 90 40% 2 18.01.2027 -
Migran Ageyan Ufa Activo 90 / 103 40% 1 14.01.2027 -
Nikita Simdyankin KDV Tomsk Activo 96 / 89 40% 1 10.01.2027 -
Vladislav Morozov Volgar Activo 100 / 78 40% 1 10.01.2027 -
Ruslan Apekov Torpedo Moscow Activo 120 / 93 40% 1 09.01.2027 -
Alexandr Saplinov Volga Activo 115 / 95 40% 1 08.01.2027 -
Vladislav Yakovlev Volga Activo 104 / 87 40% 1 04.01.2027 -
Gonzalo Viotti Racing Activo 99 / 74 40% 1 07.09.2026 -
Anthony Olusanya Kalmar FF Activo 98 / 86 40% 1 31.08.2026 -
Juan Otero Gijón Activo 139 / 145 40% 1 01.08.2026 -
Mihhail Orlov Nomme Kalju Activo 71 / 93 40% 1 01.08.2026 -